sensor_id;sensor_type;location;lat;lon;timestamp;temperature;humidity
76293;DHT22;67256;51.154;4.164;2024-03-22T00:01:51;14.30;99.90
76293;DHT22;67256;51.154;4.164;2024-03-22T00:04:16;14.30;99.90
76293;DHT22;67256;51.154;4.164;2024-03-22T00:06:43;14.20;99.90
76293;DHT22;67256;51.154;4.164;2024-03-22T00:09:10;14.10;99.90
76293;DHT22;67256;51.154;4.164;2024-03-22T00:11:36;14.20;99.90
76293;DHT22;67256;51.154;4.164;2024-03-22T00:14:03;14.10;99.90
76293;DHT22;67256;51.154;4.164;2024-03-22T00:16:29;14.10;99.90
76293;DHT22;67256;51.154;4.164;2024-03-22T00:18:54;14.10;99.90
76293;DHT22;67256;51.154;4.164;2024-03-22T00:21:21;14.10;99.90
76293;DHT22;67256;51.154;4.164;2024-03-22T00:23:47;14.00;99.90
76293;DHT22;67256;51.154;4.164;2024-03-22T00:26:13;14.10;99.90
76293;DHT22;67256;51.154;4.164;2024-03-22T00:28:39;14.10;99.90
76293;DHT22;67256;51.154;4.164;2024-03-22T00:31:05;14.20;99.90
76293;DHT22;67256;51.154;4.164;2024-03-22T00:33:31;14.20;99.90
76293;DHT22;67256;51.154;4.164;2024-03-22T00:35:57;14.10;99.90
76293;DHT22;67256;51.154;4.164;2024-03-22T00:38:23;14.10;99.90
76293;DHT22;67256;51.154;4.164;2024-03-22T00:40:49;14.10;99.90
76293;DHT22;67256;51.154;4.164;2024-03-22T00:43:15;14.20;99.90
76293;DHT22;67256;51.154;4.164;2024-03-22T00:45:41;14.20;99.90
76293;DHT22;67256;51.154;4.164;2024-03-22T00:48:07;14.00;99.90
76293;DHT22;67256;51.154;4.164;2024-03-22T00:50:33;14.00;99.90
76293;DHT22;67256;51.154;4.164;2024-03-22T00:52:58;14.00;99.90
76293;DHT22;67256;51.154;4.164;2024-03-22T00:55:24;14.00;99.90
76293;DHT22;67256;51.154;4.164;2024-03-22T00:57:51;14.00;99.90
76293;DHT22;67256;51.154;4.164;2024-03-22T01:00:17;13.90;99.90
76293;DHT22;67256;51.154;4.164;2024-03-22T01:02:43;13.90;99.90
76293;DHT22;67256;51.154;4.164;2024-03-22T01:05:09;13.90;99.90
76293;DHT22;67256;51.154;4.164;2024-03-22T01:07:36;13.90;99.90
76293;DHT22;67256;51.154;4.164;2024-03-22T01:10:02;14.00;99.90
76293;DHT22;67256;51.154;4.164;2024-03-22T01:12:28;14.00;99.90
76293;DHT22;67256;51.154;4.164;2024-03-22T01:14:54;13.90;99.90
76293;DHT22;67256;51.154;4.164;2024-03-22T01:17:20;13.90;99.90
76293;DHT22;67256;51.154;4.164;2024-03-22T01:19:45;13.80;99.90
76293;DHT22;67256;51.154;4.164;2024-03-22T01:22:11;13.80;99.90
76293;DHT22;67256;51.154;4.164;2024-03-22T01:24:37;13.70;99.90
76293;DHT22;67256;51.154;4.164;2024-03-22T01:27:03;13.70;99.90
76293;DHT22;67256;51.154;4.164;2024-03-22T01:29:29;13.70;99.90
76293;DHT22;67256;51.154;4.164;2024-03-22T01:31:58;13.60;99.90
76293;DHT22;67256;51.154;4.164;2024-03-22T01:34:23;13.60;99.90
76293;DHT22;67256;51.154;4.164;2024-03-22T01:36:51;13.60;99.90
76293;DHT22;67256;51.154;4.164;2024-03-22T01:39:16;13.50;99.90
76293;DHT22;67256;51.154;4.164;2024-03-22T01:41:43;13.40;99.90
76293;DHT22;67256;51.154;4.164;2024-03-22T01:44:09;13.50;99.90
76293;DHT22;67256;51.154;4.164;2024-03-22T01:46:35;13.60;99.90
76293;DHT22;67256;51.154;4.164;2024-03-22T01:49:01;13.50;99.90
76293;DHT22;67256;51.154;4.164;2024-03-22T01:51:27;13.60;99.90
76293;DHT22;67256;51.154;4.164;2024-03-22T01:53:53;13.70;99.90
76293;DHT22;67256;51.154;4.164;2024-03-22T01:56:20;13.70;99.90
76293;DHT22;67256;51.154;4.164;2024-03-22T01:58:47;13.80;99.90
76293;DHT22;67256;51.154;4.164;2024-03-22T02:01:13;13.80;99.90
76293;DHT22;67256;51.154;4.164;2024-03-22T02:03:39;13.60;99.90
76293;DHT22;67256;51.154;4.164;2024-03-22T02:06:04;13.30;99.90
76293;DHT22;67256;51.154;4.164;2024-03-22T02:08:30;13.30;99.90
76293;DHT22;67256;51.154;4.164;2024-03-22T02:10:56;13.30;99.90
76293;DHT22;67256;51.154;4.164;2024-03-22T02:13:22;13.40;99.90
76293;DHT22;67256;51.154;4.164;2024-03-22T02:15:47;13.30;99.90
76293;DHT22;67256;51.154;4.164;2024-03-22T02:18:13;13.40;99.90
76293;DHT22;67256;51.154;4.164;2024-03-22T02:20:38;13.30;99.90
76293;DHT22;67256;51.154;4.164;2024-03-22T02:23:04;13.30;99.90
76293;DHT22;67256;51.154;4.164;2024-03-22T02:25:30;13.20;99.90
76293;DHT22;67256;51.154;4.164;2024-03-22T02:27:55;13.30;99.90
76293;DHT22;67256;51.154;4.164;2024-03-22T02:30:21;13.30;99.90
76293;DHT22;67256;51.154;4.164;2024-03-22T02:32:46;13.30;99.90
76293;DHT22;67256;51.154;4.164;2024-03-22T02:35:12;13.20;99.90
76293;DHT22;67256;51.154;4.164;2024-03-22T02:37:38;13.20;99.90
76293;DHT22;67256;51.154;4.164;2024-03-22T02:40:04;13.20;99.90
76293;DHT22;67256;51.154;4.164;2024-03-22T02:42:30;13.20;99.90
76293;DHT22;67256;51.154;4.164;2024-03-22T02:44:55;13.30;99.90
76293;DHT22;67256;51.154;4.164;2024-03-22T02:47:21;13.20;99.90
76293;DHT22;67256;51.154;4.164;2024-03-22T02:49:47;13.30;99.90
76293;DHT22;67256;51.154;4.164;2024-03-22T02:52:12;13.20;99.90
76293;DHT22;67256;51.154;4.164;2024-03-22T02:54:38;13.10;99.90
76293;DHT22;67256;51.154;4.164;2024-03-22T02:57:04;13.10;99.90
76293;DHT22;67256;51.154;4.164;2024-03-22T02:59:29;13.20;99.90
76293;DHT22;67256;51.154;4.164;2024-03-22T03:01:55;13.20;99.90
76293;DHT22;67256;51.154;4.164;2024-03-22T03:04:21;13.20;99.90
76293;DHT22;67256;51.154;4.164;2024-03-22T03:06:46;13.20;99.90
76293;DHT22;67256;51.154;4.164;2024-03-22T03:09:12;13.20;99.90
76293;DHT22;67256;51.154;4.164;2024-03-22T03:11:39;13.10;99.90
76293;DHT22;67256;51.154;4.164;2024-03-22T03:14:05;13.10;99.90
76293;DHT22;67256;51.154;4.164;2024-03-22T03:16:32;13.00;99.90
76293;DHT22;67256;51.154;4.164;2024-03-22T03:18:58;13.10;99.90
76293;DHT22;67256;51.154;4.164;2024-03-22T03:21:23;13.10;99.90
76293;DHT22;67256;51.154;4.164;2024-03-22T03:23:49;13.10;99.90
76293;DHT22;67256;51.154;4.164;2024-03-22T03:26:15;13.10;99.90
76293;DHT22;67256;51.154;4.164;2024-03-22T03:28:40;13.10;99.90
76293;DHT22;67256;51.154;4.164;2024-03-22T03:31:06;13.00;99.90
76293;DHT22;67256;51.154;4.164;2024-03-22T03:33:32;13.00;99.90
76293;DHT22;67256;51.154;4.164;2024-03-22T03:35:57;13.00;99.90
76293;DHT22;67256;51.154;4.164;2024-03-22T03:38:23;13.10;99.90
76293;DHT22;67256;51.154;4.164;2024-03-22T03:40:49;13.00;99.90
76293;DHT22;67256;51.154;4.164;2024-03-22T03:43:14;12.80;99.90
76293;DHT22;67256;51.154;4.164;2024-03-22T03:45:40;12.80;99.90
76293;DHT22;67256;51.154;4.164;2024-03-22T03:48:06;12.80;99.90
76293;DHT22;67256;51.154;4.164;2024-03-22T03:50:31;12.90;99.90
76293;DHT22;67256;51.154;4.164;2024-03-22T03:52:57;13.00;99.90
76293;DHT22;67256;51.154;4.164;2024-03-22T03:55:23;13.00;99.90
76293;DHT22;67256;51.154;4.164;2024-03-22T03:57:52;13.00;99.90
76293;DHT22;67256;51.154;4.164;2024-03-22T04:00:19;13.10;99.90
76293;DHT22;67256;51.154;4.164;2024-03-22T04:02:45;13.10;99.90
76293;DHT22;67256;51.154;4.164;2024-03-22T04:05:10;13.00;99.90
76293;DHT22;67256;51.154;4.164;2024-03-22T04:07:36;13.00;99.90
76293;DHT22;67256;51.154;4.164;2024-03-22T04:10:02;13.00;99.90
76293;DHT22;67256;51.154;4.164;2024-03-22T04:12:28;13.00;99.90
76293;DHT22;67256;51.154;4.164;2024-03-22T04:14:54;13.00;99.90
76293;DHT22;67256;51.154;4.164;2024-03-22T04:17:20;13.00;99.90
76293;DHT22;67256;51.154;4.164;2024-03-22T04:19:46;13.00;99.90
76293;DHT22;67256;51.154;4.164;2024-03-22T04:22:11;13.00;99.90
76293;DHT22;67256;51.154;4.164;2024-03-22T04:24:37;13.00;99.90
76293;DHT22;67256;51.154;4.164;2024-03-22T04:27:03;12.90;99.90
76293;DHT22;67256;51.154;4.164;2024-03-22T04:29:28;12.90;99.90
76293;DHT22;67256;51.154;4.164;2024-03-22T04:31:54;12.80;99.90
76293;DHT22;67256;51.154;4.164;2024-03-22T04:34:20;12.80;99.90
76293;DHT22;67256;51.154;4.164;2024-03-22T04:36:45;12.70;99.90
76293;DHT22;67256;51.154;4.164;2024-03-22T04:39:11;12.80;99.90
76293;DHT22;67256;51.154;4.164;2024-03-22T04:41:37;13.00;99.90
76293;DHT22;67256;51.154;4.164;2024-03-22T04:44:03;13.00;99.90
76293;DHT22;67256;51.154;4.164;2024-03-22T04:46:29;12.90;99.90
76293;DHT22;67256;51.154;4.164;2024-03-22T04:48:55;13.00;99.90
76293;DHT22;67256;51.154;4.164;2024-03-22T04:51:21;12.80;99.90
76293;DHT22;67256;51.154;4.164;2024-03-22T04:53:46;12.80;99.90
76293;DHT22;67256;51.154;4.164;2024-03-22T04:56:12;12.80;99.90
76293;DHT22;67256;51.154;4.164;2024-03-22T04:58:37;12.80;99.90
76293;DHT22;67256;51.154;4.164;2024-03-22T05:01:03;12.70;99.90
76293;DHT22;67256;51.154;4.164;2024-03-22T05:03:29;12.70;99.90
76293;DHT22;67256;51.154;4.164;2024-03-22T05:05:55;12.70;99.90
76293;DHT22;67256;51.154;4.164;2024-03-22T05:08:21;12.80;99.90
76293;DHT22;67256;51.154;4.164;2024-03-22T05:10:47;12.70;99.90
76293;DHT22;67256;51.154;4.164;2024-03-22T05:13:13;12.80;99.90
76293;DHT22;67256;51.154;4.164;2024-03-22T05:15:38;12.80;99.90
76293;DHT22;67256;51.154;4.164;2024-03-22T05:18:04;12.80;99.90
76293;DHT22;67256;51.154;4.164;2024-03-22T05:20:30;12.80;99.90
76293;DHT22;67256;51.154;4.164;2024-03-22T05:22:56;12.70;99.90
76293;DHT22;67256;51.154;4.164;2024-03-22T05:25:21;12.70;99.90
76293;DHT22;67256;51.154;4.164;2024-03-22T05:27:47;12.70;99.90
76293;DHT22;67256;51.154;4.164;2024-03-22T05:30:13;12.70;99.90
76293;DHT22;67256;51.154;4.164;2024-03-22T05:32:39;12.80;99.90
76293;DHT22;67256;51.154;4.164;2024-03-22T05:35:05;12.90;99.90
76293;DHT22;67256;51.154;4.164;2024-03-22T05:37:32;12.90;99.90
76293;DHT22;67256;51.154;4.164;2024-03-22T05:39:59;12.80;99.90
76293;DHT22;67256;51.154;4.164;2024-03-22T05:42:26;12.80;99.90
76293;DHT22;67256;51.154;4.164;2024-03-22T05:44:51;12.80;99.90
76293;DHT22;67256;51.154;4.164;2024-03-22T05:47:18;12.80;99.90
76293;DHT22;67256;51.154;4.164;2024-03-22T05:49:44;12.80;99.90
76293;DHT22;67256;51.154;4.164;2024-03-22T05:52:10;12.80;99.90
76293;DHT22;67256;51.154;4.164;2024-03-22T05:54:35;12.80;99.90
76293;DHT22;67256;51.154;4.164;2024-03-22T05:57:02;12.70;99.90
76293;DHT22;67256;51.154;4.164;2024-03-22T05:59:28;12.70;99.90
76293;DHT22;67256;51.154;4.164;2024-03-22T06:01:56;12.70;99.90
76293;DHT22;67256;51.154;4.164;2024-03-22T06:04:22;12.60;99.90
76293;DHT22;67256;51.154;4.164;2024-03-22T06:06:49;12.70;99.90
76293;DHT22;67256;51.154;4.164;2024-03-22T06:09:15;12.50;99.90
76293;DHT22;67256;51.154;4.164;2024-03-22T06:11:50;12.50;99.90
76293;DHT22;67256;51.154;4.164;2024-03-22T06:14:15;12.50;99.90
76293;DHT22;67256;51.154;4.164;2024-03-22T06:16:41;12.50;99.90
76293;DHT22;67256;51.154;4.164;2024-03-22T06:19:07;12.50;99.90
76293;DHT22;67256;51.154;4.164;2024-03-22T06:21:32;12.60;99.90
76293;DHT22;67256;51.154;4.164;2024-03-22T06:23:58;12.50;99.90
76293;DHT22;67256;51.154;4.164;2024-03-22T06:26:24;12.50;99.90
76293;DHT22;67256;51.154;4.164;2024-03-22T06:28:49;12.50;99.90
76293;DHT22;67256;51.154;4.164;2024-03-22T06:31:15;12.60;99.90
76293;DHT22;67256;51.154;4.164;2024-03-22T06:33:40;12.50;99.90
76293;DHT22;67256;51.154;4.164;2024-03-22T06:36:06;12.40;99.90
76293;DHT22;67256;51.154;4.164;2024-03-22T06:38:32;12.40;99.90
76293;DHT22;67256;51.154;4.164;2024-03-22T06:40:58;12.50;99.90
76293;DHT22;67256;51.154;4.164;2024-03-22T06:43:24;12.60;99.90
76293;DHT22;67256;51.154;4.164;2024-03-22T06:45:50;12.60;99.90
76293;DHT22;67256;51.154;4.164;2024-03-22T06:48:16;12.60;99.90
76293;DHT22;67256;51.154;4.164;2024-03-22T06:50:42;12.50;99.90
76293;DHT22;67256;51.154;4.164;2024-03-22T06:53:08;12.50;99.90
76293;DHT22;67256;51.154;4.164;2024-03-22T06:55:35;12.40;99.90
76293;DHT22;67256;51.154;4.164;2024-03-22T06:58:01;12.40;99.90
76293;DHT22;67256;51.154;4.164;2024-03-22T07:00:26;12.50;99.90
76293;DHT22;67256;51.154;4.164;2024-03-22T07:02:52;12.70;99.90
76293;DHT22;67256;51.154;4.164;2024-03-22T07:05:18;12.70;99.90
76293;DHT22;67256;51.154;4.164;2024-03-22T07:07:44;12.80;99.90
76293;DHT22;67256;51.154;4.164;2024-03-22T07:10:10;12.80;99.90
76293;DHT22;67256;51.154;4.164;2024-03-22T07:12:35;13.00;99.90
76293;DHT22;67256;51.154;4.164;2024-03-22T07:15:01;13.10;99.90
76293;DHT22;67256;51.154;4.164;2024-03-22T07:17:28;13.00;99.90
76293;DHT22;67256;51.154;4.164;2024-03-22T07:19:54;13.00;99.90
76293;DHT22;67256;51.154;4.164;2024-03-22T07:22:21;12.90;99.90
76293;DHT22;67256;51.154;4.164;2024-03-22T07:24:47;12.90;99.90
76293;DHT22;67256;51.154;4.164;2024-03-22T07:27:13;13.00;99.90
76293;DHT22;67256;51.154;4.164;2024-03-22T07:29:40;13.00;99.90
76293;DHT22;67256;51.154;4.164;2024-03-22T07:32:06;12.90;99.90
76293;DHT22;67256;51.154;4.164;2024-03-22T07:34:32;13.00;99.90
76293;DHT22;67256;51.154;4.164;2024-03-22T07:36:58;13.00;99.90
76293;DHT22;67256;51.154;4.164;2024-03-22T07:39:24;13.10;99.90
76293;DHT22;67256;51.154;4.164;2024-03-22T07:41:50;13.20;99.90
76293;DHT22;67256;51.154;4.164;2024-03-22T07:44:16;13.20;99.90
76293;DHT22;67256;51.154;4.164;2024-03-22T07:46:53;13.00;99.90
76293;DHT22;67256;51.154;4.164;2024-03-22T07:49:19;13.00;99.90
76293;DHT22;67256;51.154;4.164;2024-03-22T07:51:45;13.10;99.90
76293;DHT22;67256;51.154;4.164;2024-03-22T07:54:10;13.20;99.90
76293;DHT22;67256;51.154;4.164;2024-03-22T07:56:36;13.20;99.90
76293;DHT22;67256;51.154;4.164;2024-03-22T07:59:02;13.30;99.90
76293;DHT22;67256;51.154;4.164;2024-03-22T08:01:28;13.30;99.90
76293;DHT22;67256;51.154;4.164;2024-03-22T08:03:53;13.50;99.90
76293;DHT22;67256;51.154;4.164;2024-03-22T08:06:20;13.60;99.90
76293;DHT22;67256;51.154;4.164;2024-03-22T08:08:45;13.70;99.90
76293;DHT22;67256;51.154;4.164;2024-03-22T08:11:11;13.60;99.90
76293;DHT22;67256;51.154;4.164;2024-03-22T08:13:37;13.60;99.90
76293;DHT22;67256;51.154;4.164;2024-03-22T08:16:04;13.60;99.90
76293;DHT22;67256;51.154;4.164;2024-03-22T08:18:29;13.70;99.90
76293;DHT22;67256;51.154;4.164;2024-03-22T08:20:55;13.70;99.90
76293;DHT22;67256;51.154;4.164;2024-03-22T08:23:21;13.60;99.90
76293;DHT22;67256;51.154;4.164;2024-03-22T08:25:48;13.50;99.90
76293;DHT22;67256;51.154;4.164;2024-03-22T08:28:14;13.70;99.90
76293;DHT22;67256;51.154;4.164;2024-03-22T08:30:41;13.80;99.90
76293;DHT22;67256;51.154;4.164;2024-03-22T08:33:07;13.80;99.90
76293;DHT22;67256;51.154;4.164;2024-03-22T08:35:33;13.70;99.90
76293;DHT22;67256;51.154;4.164;2024-03-22T08:37:59;13.70;99.90
76293;DHT22;67256;51.154;4.164;2024-03-22T08:40:25;13.50;99.90
76293;DHT22;67256;51.154;4.164;2024-03-22T08:42:52;13.70;99.90
76293;DHT22;67256;51.154;4.164;2024-03-22T08:45:18;13.90;99.90
76293;DHT22;67256;51.154;4.164;2024-03-22T08:47:43;14.00;99.90
76293;DHT22;67256;51.154;4.164;2024-03-22T08:50:11;14.00;99.90
76293;DHT22;67256;51.154;4.164;2024-03-22T08:52:37;14.00;99.90
76293;DHT22;67256;51.154;4.164;2024-03-22T08:55:04;13.80;99.90
76293;DHT22;67256;51.154;4.164;2024-03-22T08:57:31;13.70;99.90
76293;DHT22;67256;51.154;4.164;2024-03-22T08:59:57;13.70;99.90
76293;DHT22;67256;51.154;4.164;2024-03-22T09:02:25;13.60;99.90
76293;DHT22;67256;51.154;4.164;2024-03-22T09:04:50;13.50;99.90
76293;DHT22;67256;51.154;4.164;2024-03-22T09:07:16;13.50;99.90
76293;DHT22;67256;51.154;4.164;2024-03-22T09:09:42;13.40;99.90
76293;DHT22;67256;51.154;4.164;2024-03-22T09:12:08;13.30;99.90
76293;DHT22;67256;51.154;4.164;2024-03-22T09:14:34;13.30;99.90
76293;DHT22;67256;51.154;4.164;2024-03-22T09:17:00;13.30;99.90
76293;DHT22;67256;51.154;4.164;2024-03-22T09:19:25;13.40;99.90
76293;DHT22;67256;51.154;4.164;2024-03-22T09:21:51;13.50;99.90
76293;DHT22;67256;51.154;4.164;2024-03-22T09:24:17;13.50;99.90
76293;DHT22;67256;51.154;4.164;2024-03-22T09:26:42;13.60;99.90
76293;DHT22;67256;51.154;4.164;2024-03-22T09:29:08;13.70;99.90
76293;DHT22;67256;51.154;4.164;2024-03-22T09:31:34;13.70;99.90
76293;DHT22;67256;51.154;4.164;2024-03-22T09:33:59;13.80;99.90
76293;DHT22;67256;51.154;4.164;2024-03-22T09:36:25;13.90;99.90
76293;DHT22;67256;51.154;4.164;2024-03-22T09:38:51;13.90;99.90
76293;DHT22;67256;51.154;4.164;2024-03-22T09:41:23;13.80;99.90
76293;DHT22;67256;51.154;4.164;2024-03-22T09:43:53;13.80;99.90
76293;DHT22;67256;51.154;4.164;2024-03-22T09:46:19;13.90;99.90
76293;DHT22;67256;51.154;4.164;2024-03-22T09:48:48;13.80;99.90
76293;DHT22;67256;51.154;4.164;2024-03-22T09:51:16;13.80;99.90
76293;DHT22;67256;51.154;4.164;2024-03-22T09:53:48;13.90;99.90
76293;DHT22;67256;51.154;4.164;2024-03-22T09:56:15;13.90;99.90
76293;DHT22;67256;51.154;4.164;2024-03-22T09:58:44;13.80;99.90
76293;DHT22;67256;51.154;4.164;2024-03-22T10:01:11;13.70;99.90
76293;DHT22;67256;51.154;4.164;2024-03-22T10:03:37;13.80;99.90
76293;DHT22;67256;51.154;4.164;2024-03-22T10:06:03;13.90;99.90
76293;DHT22;67256;51.154;4.164;2024-03-22T10:08:30;13.90;99.90
76293;DHT22;67256;51.154;4.164;2024-03-22T10:10:56;14.00;99.90
76293;DHT22;67256;51.154;4.164;2024-03-22T10:13:21;14.10;99.90
76293;DHT22;67256;51.154;4.164;2024-03-22T10:15:47;14.10;99.90
76293;DHT22;67256;51.154;4.164;2024-03-22T10:18:14;13.80;99.90
76293;DHT22;67256;51.154;4.164;2024-03-22T10:20:41;13.80;99.90
76293;DHT22;67256;51.154;4.164;2024-03-22T10:23:08;13.80;99.90
76293;DHT22;67256;51.154;4.164;2024-03-22T10:25:34;13.70;99.90
76293;DHT22;67256;51.154;4.164;2024-03-22T10:28:01;13.60;99.90
76293;DHT22;67256;51.154;4.164;2024-03-22T10:30:27;13.70;99.90
76293;DHT22;67256;51.154;4.164;2024-03-22T10:32:54;13.60;99.90
76293;DHT22;67256;51.154;4.164;2024-03-22T10:35:19;13.50;99.90
76293;DHT22;67256;51.154;4.164;2024-03-22T10:37:46;13.50;99.90
76293;DHT22;67256;51.154;4.164;2024-03-22T10:40:12;13.50;99.90
76293;DHT22;67256;51.154;4.164;2024-03-22T10:42:41;13.50;99.90
76293;DHT22;67256;51.154;4.164;2024-03-22T10:45:08;13.40;99.90
76293;DHT22;67256;51.154;4.164;2024-03-22T10:47:36;13.40;99.90
76293;DHT22;67256;51.154;4.164;2024-03-22T10:50:12;13.50;99.90
76293;DHT22;67256;51.154;4.164;2024-03-22T10:53:00;13.40;99.90
76293;DHT22;67256;51.154;4.164;2024-03-22T10:55:30;13.50;99.90
76293;DHT22;67256;51.154;4.164;2024-03-22T10:57:58;13.50;99.90
76293;DHT22;67256;51.154;4.164;2024-03-22T11:00:34;13.40;99.90
76293;DHT22;67256;51.154;4.164;2024-03-22T11:03:02;13.50;99.90
76293;DHT22;67256;51.154;4.164;2024-03-22T11:05:28;13.60;99.90
76293;DHT22;67256;51.154;4.164;2024-03-22T11:08:03;13.60;99.90
76293;DHT22;67256;51.154;4.164;2024-03-22T11:10:35;13.70;99.90
76293;DHT22;67256;51.154;4.164;2024-03-22T11:13:02;13.70;99.90
76293;DHT22;67256;51.154;4.164;2024-03-22T11:15:31;13.70;99.90
76293;DHT22;67256;51.154;4.164;2024-03-22T11:17:57;13.70;99.90
76293;DHT22;67256;51.154;4.164;2024-03-22T11:20:23;13.80;99.90
76293;DHT22;67256;51.154;4.164;2024-03-22T11:22:50;13.80;99.90
76293;DHT22;67256;51.154;4.164;2024-03-22T11:25:16;13.60;99.90
76293;DHT22;67256;51.154;4.164;2024-03-22T11:27:42;13.50;99.90
76293;DHT22;67256;51.154;4.164;2024-03-22T11:30:08;13.50;99.90
76293;DHT22;67256;51.154;4.164;2024-03-22T11:32:34;13.50;99.90
76293;DHT22;67256;51.154;4.164;2024-03-22T11:35:12;13.30;99.90
76293;DHT22;67256;51.154;4.164;2024-03-22T11:37:39;13.50;99.90
76293;DHT22;67256;51.154;4.164;2024-03-22T11:40:06;13.60;99.90
76293;DHT22;67256;51.154;4.164;2024-03-22T11:42:35;13.50;99.90
76293;DHT22;67256;51.154;4.164;2024-03-22T11:45:01;13.50;99.90
76293;DHT22;67256;51.154;4.164;2024-03-22T11:47:27;13.60;99.90
76293;DHT22;67256;51.154;4.164;2024-03-22T11:49:55;13.70;99.90
76293;DHT22;67256;51.154;4.164;2024-03-22T11:52:25;13.80;99.90
76293;DHT22;67256;51.154;4.164;2024-03-22T11:54:51;13.60;99.90
76293;DHT22;67256;51.154;4.164;2024-03-22T11:57:18;13.60;99.90
76293;DHT22;67256;51.154;4.164;2024-03-22T11:59:44;13.60;99.90
76293;DHT22;67256;51.154;4.164;2024-03-22T12:02:10;13.70;99.90
76293;DHT22;67256;51.154;4.164;2024-03-22T12:04:36;13.80;99.90
76293;DHT22;67256;51.154;4.164;2024-03-22T12:07:01;13.90;99.90
76293;DHT22;67256;51.154;4.164;2024-03-22T12:09:27;14.10;99.90
76293;DHT22;67256;51.154;4.164;2024-03-22T12:11:55;14.10;99.90
76293;DHT22;67256;51.154;4.164;2024-03-22T12:14:21;14.00;99.90
76293;DHT22;67256;51.154;4.164;2024-03-22T12:16:46;14.10;99.90
76293;DHT22;67256;51.154;4.164;2024-03-22T12:19:12;14.10;99.90
76293;DHT22;67256;51.154;4.164;2024-03-22T12:21:38;14.10;99.90
76293;DHT22;67256;51.154;4.164;2024-03-22T12:24:04;14.20;99.90
76293;DHT22;67256;51.154;4.164;2024-03-22T12:26:29;14.10;99.90
76293;DHT22;67256;51.154;4.164;2024-03-22T12:28:57;14.00;99.90
76293;DHT22;67256;51.154;4.164;2024-03-22T12:31:23;14.00;99.90
76293;DHT22;67256;51.154;4.164;2024-03-22T12:33:48;13.90;99.90
76293;DHT22;67256;51.154;4.164;2024-03-22T12:36:14;13.90;99.90
76293;DHT22;67256;51.154;4.164;2024-03-22T12:38:40;13.80;99.90
76293;DHT22;67256;51.154;4.164;2024-03-22T12:41:07;13.70;99.90
76293;DHT22;67256;51.154;4.164;2024-03-22T12:43:32;13.70;99.90
76293;DHT22;67256;51.154;4.164;2024-03-22T12:45:59;13.90;99.90
76293;DHT22;67256;51.154;4.164;2024-03-22T12:48:25;13.90;99.90
76293;DHT22;67256;51.154;4.164;2024-03-22T12:50:50;13.90;99.90
76293;DHT22;67256;51.154;4.164;2024-03-22T12:53:16;14.00;99.90
76293;DHT22;67256;51.154;4.164;2024-03-22T12:55:42;13.90;99.90
76293;DHT22;67256;51.154;4.164;2024-03-22T12:58:07;13.90;99.90
76293;DHT22;67256;51.154;4.164;2024-03-22T13:00:33;14.00;99.90
76293;DHT22;67256;51.154;4.164;2024-03-22T13:02:59;14.00;99.90
76293;DHT22;67256;51.154;4.164;2024-03-22T13:05:25;13.80;99.90
76293;DHT22;67256;51.154;4.164;2024-03-22T13:07:52;13.70;99.90
76293;DHT22;67256;51.154;4.164;2024-03-22T13:10:17;13.60;99.90
76293;DHT22;67256;51.154;4.164;2024-03-22T13:12:43;13.70;99.90
76293;DHT22;67256;51.154;4.164;2024-03-22T13:15:09;13.60;99.90
76293;DHT22;67256;51.154;4.164;2024-03-22T13:17:35;13.70;99.90
76293;DHT22;67256;51.154;4.164;2024-03-22T13:20:01;13.80;99.90
76293;DHT22;67256;51.154;4.164;2024-03-22T13:22:26;13.80;99.90
76293;DHT22;67256;51.154;4.164;2024-03-22T13:24:52;13.60;99.90
76293;DHT22;67256;51.154;4.164;2024-03-22T13:27:18;13.50;99.90
76293;DHT22;67256;51.154;4.164;2024-03-22T13:29:45;13.60;99.90
76293;DHT22;67256;51.154;4.164;2024-03-22T13:32:11;13.60;99.90
76293;DHT22;67256;51.154;4.164;2024-03-22T13:34:38;13.70;99.90
76293;DHT22;67256;51.154;4.164;2024-03-22T13:37:04;13.80;99.90
76293;DHT22;67256;51.154;4.164;2024-03-22T13:39:29;13.90;99.90
76293;DHT22;67256;51.154;4.164;2024-03-22T13:41:58;14.10;99.90
76293;DHT22;67256;51.154;4.164;2024-03-22T13:44:24;14.10;99.90
76293;DHT22;67256;51.154;4.164;2024-03-22T13:46:50;13.90;99.90
76293;DHT22;67256;51.154;4.164;2024-03-22T13:49:17;14.10;99.90
76293;DHT22;67256;51.154;4.164;2024-03-22T13:51:46;14.10;99.90
76293;DHT22;67256;51.154;4.164;2024-03-22T13:54:12;14.20;99.90
76293;DHT22;67256;51.154;4.164;2024-03-22T13:56:38;14.20;99.90
76293;DHT22;67256;51.154;4.164;2024-03-22T13:59:04;14.10;99.90
76293;DHT22;67256;51.154;4.164;2024-03-22T14:01:32;14.00;99.90
76293;DHT22;67256;51.154;4.164;2024-03-22T14:03:57;13.80;99.90
76293;DHT22;67256;51.154;4.164;2024-03-22T14:06:23;13.90;99.90
76293;DHT22;67256;51.154;4.164;2024-03-22T14:08:49;13.80;99.90
76293;DHT22;67256;51.154;4.164;2024-03-22T14:11:14;13.60;99.90
76293;DHT22;67256;51.154;4.164;2024-03-22T14:13:40;13.70;99.90
76293;DHT22;67256;51.154;4.164;2024-03-22T14:16:05;13.80;99.90
76293;DHT22;67256;51.154;4.164;2024-03-22T14:18:33;13.80;99.90
76293;DHT22;67256;51.154;4.164;2024-03-22T14:20:58;13.90;99.90
76293;DHT22;67256;51.154;4.164;2024-03-22T14:23:24;13.70;99.90
76293;DHT22;67256;51.154;4.164;2024-03-22T14:25:49;13.80;99.90
76293;DHT22;67256;51.154;4.164;2024-03-22T14:28:16;14.00;99.90
76293;DHT22;67256;51.154;4.164;2024-03-22T14:30:41;14.00;99.90
76293;DHT22;67256;51.154;4.164;2024-03-22T14:33:07;13.90;99.90
76293;DHT22;67256;51.154;4.164;2024-03-22T14:35:32;14.00;99.90
76293;DHT22;67256;51.154;4.164;2024-03-22T14:37:59;13.80;99.90
76293;DHT22;67256;51.154;4.164;2024-03-22T14:40:25;13.70;99.90
76293;DHT22;67256;51.154;4.164;2024-03-22T14:42:50;13.70;99.90
76293;DHT22;67256;51.154;4.164;2024-03-22T14:45:16;13.80;99.90
76293;DHT22;67256;51.154;4.164;2024-03-22T14:47:46;13.70;99.90
76293;DHT22;67256;51.154;4.164;2024-03-22T14:50:12;13.80;99.90
76293;DHT22;67256;51.154;4.164;2024-03-22T14:52:37;13.80;99.90
76293;DHT22;67256;51.154;4.164;2024-03-22T14:55:05;13.80;99.90
76293;DHT22;67256;51.154;4.164;2024-03-22T14:57:31;13.80;99.90
76293;DHT22;67256;51.154;4.164;2024-03-22T14:59:57;13.70;99.90
76293;DHT22;67256;51.154;4.164;2024-03-22T15:02:23;13.50;99.90
76293;DHT22;67256;51.154;4.164;2024-03-22T15:04:48;13.50;99.90
76293;DHT22;67256;51.154;4.164;2024-03-22T15:07:14;13.40;99.90
76293;DHT22;67256;51.154;4.164;2024-03-22T15:09:41;13.50;99.90
76293;DHT22;67256;51.154;4.164;2024-03-22T15:12:07;13.50;99.90
76293;DHT22;67256;51.154;4.164;2024-03-22T15:14:34;13.50;99.90
76293;DHT22;67256;51.154;4.164;2024-03-22T15:17:00;13.50;99.90
76293;DHT22;67256;51.154;4.164;2024-03-22T15:19:26;13.60;99.90
76293;DHT22;67256;51.154;4.164;2024-03-22T15:21:51;13.70;99.90
76293;DHT22;67256;51.154;4.164;2024-03-22T15:24:17;13.70;99.90